createdAt,value
2023-02-02T00:01:47.692Z,-0.60
2023-02-02T00:04:18.770Z,-0.60
2023-02-02T00:06:47.189Z,-0.70
2023-02-02T00:09:18.234Z,-0.70
2023-02-02T00:11:48.618Z,-0.70
2023-02-02T00:14:18.968Z,-0.70
2023-02-02T00:16:48.209Z,-0.70
2023-02-02T00:19:18.469Z,-0.70
2023-02-02T00:21:47.101Z,-0.70
2023-02-02T00:24:18.011Z,-0.80
2023-02-02T00:26:48.146Z,-0.80
2023-02-02T00:29:21.078Z,-0.80
2023-02-02T00:31:49.673Z,-0.80
2023-02-02T00:34:18.638Z,-0.90
2023-02-02T00:36:47.466Z,-0.90
2023-02-02T00:39:18.885Z,-0.90
2023-02-02T00:41:47.219Z,-0.90
2023-02-02T00:44:35.129Z,-0.90
2023-02-02T00:47:03.343Z,-0.90
2023-02-02T00:49:31.910Z,-0.90
2023-02-02T00:52:00.763Z,-0.90
2023-02-02T00:54:29.598Z,-0.90
2023-02-02T00:56:57.865Z,-1.00
2023-02-02T00:59:27.518Z,-1.00
2023-02-02T01:01:55.640Z,-1.00
2023-02-02T01:04:24.349Z,-1.00
2023-02-02T01:06:53.120Z,-1.10
2023-02-02T01:09:21.470Z,-1.10
2023-02-02T01:11:49.891Z,-1.20
2023-02-02T01:14:18.520Z,-1.20
2023-02-02T01:16:48.725Z,-1.20
2023-02-02T01:19:17.717Z,-1.30
2023-02-02T01:21:46.350Z,-1.30
2023-02-02T01:24:14.950Z,-1.40
2023-02-02T01:26:43.226Z,-1.40
2023-02-02T01:29:12.670Z,-1.40
2023-02-02T01:31:42.240Z,-1.50
2023-02-02T01:34:11.915Z,-1.50
2023-02-02T01:36:40.290Z,-1.50
2023-02-02T01:39:09.280Z,-1.50
2023-02-02T01:41:37.470Z,-1.50
2023-02-02T01:44:07.615Z,-1.50
2023-02-02T01:46:37.932Z,-1.50
2023-02-02T01:49:11.896Z,-1.60
2023-02-02T01:51:45.522Z,-1.60
2023-02-02T01:54:17.188Z,-1.60
2023-02-02T01:56:49.018Z,-1.70
2023-02-02T01:59:19.837Z,-1.70
2023-02-02T02:01:50.128Z,-1.80
2023-02-02T02:04:18.628Z,-1.80
2023-02-02T02:06:51.489Z,-1.90
2023-02-02T02:09:20.295Z,-1.90
2023-02-02T02:11:49.329Z,-2.00
2023-02-02T02:14:35.782Z,-2.10
2023-02-02T02:17:22.446Z,-2.10
2023-02-02T02:20:39.620Z,-2.20
2023-02-02T02:23:57.101Z,-2.20
2023-02-02T02:26:57.753Z,-2.30
2023-02-02T02:29:59.692Z,-2.40
2023-02-02T02:32:39.224Z,-2.40
2023-02-02T02:35:13.696Z,-2.50
2023-02-02T02:37:49.101Z,-2.50
2023-02-02T02:40:25.380Z,-2.60
2023-02-02T02:42:57.380Z,-2.60
2023-02-02T02:45:27.879Z,-2.60
2023-02-02T02:47:58.600Z,-2.70
2023-02-02T02:50:27.335Z,-2.80
2023-02-02T02:53:02.174Z,-2.90
2023-02-02T02:55:40.675Z,-2.90
2023-02-02T02:58:13.595Z,-2.80
2023-02-02T03:00:52.724Z,-2.80
2023-02-02T03:03:37.376Z,-2.80
2023-02-02T03:06:13.748Z,-2.70
2023-02-02T03:08:45.634Z,-2.60
2023-02-02T03:11:16.868Z,-2.60
2023-02-02T03:13:45.541Z,-2.50
2023-02-02T03:16:16.070Z,-2.50
2023-02-02T03:18:46.415Z,-2.50
2023-02-02T03:21:15.188Z,-2.60
2023-02-02T03:23:43.385Z,-2.50
2023-02-02T03:26:11.528Z,-2.60
2023-02-02T03:28:40.316Z,-2.60
2023-02-02T03:31:09.085Z,-2.60
2023-02-02T03:33:38.995Z,-2.50
2023-02-02T03:36:09.836Z,-2.50
2023-02-02T03:38:38.018Z,-2.50
2023-02-02T03:41:06.854Z,-2.50
2023-02-02T03:43:35.547Z,-2.50
2023-02-02T03:46:05.420Z,-2.40
2023-02-02T03:48:37.091Z,-2.40
2023-02-02T03:51:09.253Z,-2.30
2023-02-02T03:53:37.458Z,-2.40
2023-02-02T03:56:06.395Z,-2.30
2023-02-02T03:58:34.633Z,-2.30
2023-02-02T04:01:05.221Z,-2.20
2023-02-02T04:03:33.765Z,-2.20
2023-02-02T04:06:02.205Z,-2.20
2023-02-02T04:08:32.401Z,-2.10
2023-02-02T04:11:00.921Z,-2.10
2023-02-02T04:13:29.305Z,-2.00
2023-02-02T04:16:01.537Z,-2.00
2023-02-02T04:18:30.609Z,-1.90
2023-02-02T04:21:00.124Z,-1.90
2023-02-02T04:23:30.086Z,-1.80
2023-02-02T04:26:00.644Z,-1.80
2023-02-02T04:28:29.628Z,-1.80
2023-02-02T04:30:58.288Z,-1.80
2023-02-02T04:33:28.613Z,-1.80
2023-02-02T04:35:57.243Z,-1.70
2023-02-02T04:38:25.691Z,-1.70
2023-02-02T04:40:53.924Z,-1.70
2023-02-02T04:43:23.627Z,-1.70
2023-02-02T04:45:57.243Z,-1.70
2023-02-02T04:48:25.973Z,-1.70
2023-02-02T04:51:00.999Z,-1.70
2023-02-02T04:53:30.099Z,-1.70
2023-02-02T04:55:58.434Z,-1.70
2023-02-02T04:58:28.515Z,-1.70
2023-02-02T05:00:56.763Z,-1.80
2023-02-02T05:03:25.042Z,-1.80
2023-02-02T05:06:02.097Z,-1.80
2023-02-02T05:08:30.341Z,-1.80
2023-02-02T05:10:59.205Z,-1.80
2023-02-02T05:13:29.360Z,-1.90
2023-02-02T05:15:57.537Z,-1.90
2023-02-02T05:18:26.568Z,-1.90
2023-02-02T05:20:55.819Z,-1.90
2023-02-02T05:23:23.937Z,-1.90
2023-02-02T05:25:54.335Z,-1.90
2023-02-02T05:28:23.658Z,-1.90
2023-02-02T05:30:53.370Z,-1.90
2023-02-02T05:33:21.580Z,-1.90
2023-02-02T05:35:50.642Z,-2.00
2023-02-02T05:38:18.861Z,-2.00
2023-02-02T05:40:49.439Z,-2.00
2023-02-02T05:43:19.363Z,-2.00
2023-02-02T05:45:48.797Z,-2.00
2023-02-02T05:48:18.492Z,-2.00
2023-02-02T05:50:50.250Z,-2.00
2023-02-02T05:53:18.994Z,-2.00
2023-02-02T05:55:47.119Z,-2.00
2023-02-02T05:58:15.998Z,-2.00
2023-02-02T06:00:44.264Z,-2.00
2023-02-02T06:03:13.052Z,-2.00
2023-02-02T06:05:43.448Z,-2.00
2023-02-02T06:08:12.139Z,-2.00
2023-02-02T06:10:40.964Z,-2.00
2023-02-02T06:13:09.691Z,-2.00
2023-02-02T06:15:38.645Z,-2.00
2023-02-02T06:18:08.392Z,-2.00
2023-02-02T06:20:37.751Z,-2.00
2023-02-02T06:23:07.510Z,-2.00
2023-02-02T06:25:35.878Z,-2.00
2023-02-02T06:28:04.533Z,-2.00
2023-02-02T06:30:32.822Z,-2.00
2023-02-02T06:33:02.197Z,-2.00
2023-02-02T06:35:30.503Z,-1.90
2023-02-02T06:37:59.830Z,-1.90
2023-02-02T06:40:30.144Z,-1.90
2023-02-02T06:42:59.176Z,-2.00
2023-02-02T06:45:27.963Z,-1.90
2023-02-02T06:48:01.087Z,-1.90
2023-02-02T06:50:29.354Z,-2.00
2023-02-02T06:52:57.973Z,-2.00
2023-02-02T06:55:26.708Z,-1.90
2023-02-02T06:58:00.392Z,-2.00
2023-02-02T07:00:30.335Z,-2.00
2023-02-02T07:02:58.589Z,-1.90
2023-02-02T07:05:30.787Z,-1.90
2023-02-02T07:07:59.402Z,-1.90
2023-02-02T07:11:13.599Z,-1.90
2023-02-02T07:13:17.606Z,-1.90
2023-02-02T07:15:45.948Z,-1.90
2023-02-02T07:18:14.196Z,-1.90
2023-02-02T07:20:42.532Z,-1.90
2023-02-02T07:23:10.841Z,-1.90
2023-02-02T07:25:39.072Z,-1.90
2023-02-02T07:28:07.506Z,-1.90
2023-02-02T07:30:37.111Z,-1.90
2023-02-02T07:33:05.334Z,-1.90
2023-02-02T07:35:33.917Z,-1.90
2023-02-02T07:38:02.540Z,-1.90
2023-02-02T07:40:30.826Z,-1.90
2023-02-02T07:43:01.366Z,-1.90
2023-02-02T07:45:29.730Z,-1.90
2023-02-02T07:48:00.228Z,-1.90
2023-02-02T07:50:30.385Z,-1.90
2023-02-02T07:53:00.232Z,-1.90
2023-02-02T07:55:28.760Z,-2.00
2023-02-02T07:57:59.047Z,-2.00
2023-02-02T08:00:28.129Z,-2.00
2023-02-02T08:02:56.766Z,-2.00
2023-02-02T08:05:27.091Z,-2.00
2023-02-02T08:07:55.851Z,-2.00
2023-02-02T08:10:24.013Z,-2.00
2023-02-02T08:12:52.189Z,-2.00
2023-02-02T08:15:20.557Z,-2.00
2023-02-02T08:17:50.263Z,-2.00
2023-02-02T08:20:18.625Z,-2.00
2023-02-02T08:22:48.287Z,-2.00
2023-02-02T08:25:16.571Z,-2.00
2023-02-02T08:27:44.785Z,-2.00
2023-02-02T08:30:14.086Z,-1.90
2023-02-02T08:32:42.172Z,-2.00
2023-02-02T08:35:10.980Z,-2.00
2023-02-02T08:37:39.178Z,-2.00
2023-02-02T08:40:10.828Z,-2.10
2023-02-02T08:42:39.031Z,-2.10
2023-02-02T08:46:04.371Z,-2.10
2023-02-02T08:48:10.977Z,-2.20
2023-02-02T08:50:40.250Z,-2.30
2023-02-02T08:53:08.427Z,-2.50
2023-02-02T08:55:37.924Z,-2.50
2023-02-02T08:58:06.095Z,-2.60
2023-02-02T09:00:34.499Z,-2.60
2023-02-02T09:03:02.689Z,-2.60
2023-02-02T09:05:30.939Z,-2.60
2023-02-02T09:07:59.285Z,-2.60
2023-02-02T09:10:27.827Z,-2.60
2023-02-02T09:12:57.719Z,-2.50
2023-02-02T09:15:26.178Z,-2.50
2023-02-02T09:17:54.698Z,-2.50
2023-02-02T09:20:23.399Z,-2.60
2023-02-02T09:22:51.918Z,-2.50
2023-02-02T09:25:20.123Z,-2.30
2023-02-02T09:27:48.321Z,-2.30
2023-02-02T09:30:18.686Z,-2.40
2023-02-02T09:32:49.486Z,-2.40
2023-02-02T09:35:18.046Z,-2.50
2023-02-02T09:37:46.298Z,-2.50
2023-02-02T09:40:19.278Z,-2.50
2023-02-02T09:42:58.020Z,-2.50
2023-02-02T09:45:37.622Z,-2.50
2023-02-02T09:48:19.478Z,-2.40
2023-02-02T09:50:51.035Z,-2.30
2023-02-02T09:53:24.631Z,-2.10
2023-02-02T09:55:57.095Z,-1.90
2023-02-02T09:58:29.525Z,-1.80
2023-02-02T10:01:05.612Z,-1.70
2023-02-02T10:03:41.036Z,-1.60
2023-02-02T10:06:22.987Z,-1.70
2023-02-02T10:08:55.364Z,-1.30
2023-02-02T10:11:35.346Z,-1.20
2023-02-02T10:14:08.059Z,-0.40
2023-02-02T10:16:39.983Z,-0.20
2023-02-02T10:19:13.847Z,0.60
2023-02-02T10:21:47.700Z,1.70
2023-02-02T10:24:20.607Z,1.60
2023-02-02T10:26:51.679Z,1.20
2023-02-02T10:29:47.003Z,1.20
2023-02-02T10:32:24.853Z,1.50
2023-02-02T10:35:14.685Z,1.70
2023-02-02T10:37:51.371Z,0.80
2023-02-02T10:40:32.892Z,0.50
2023-02-02T10:43:36.638Z,0.00
2023-02-02T10:46:07.129Z,1.20
2023-02-02T10:48:37.711Z,1.70
2023-02-02T10:51:13.131Z,1.40
2023-02-02T10:53:44.167Z,1.10
2023-02-02T10:56:14.670Z,1.40
2023-02-02T10:58:51.548Z,2.20
2023-02-02T11:01:22.853Z,1.30
2023-02-02T11:04:13.184Z,0.60
2023-02-02T11:06:49.838Z,-0.10
2023-02-02T11:09:21.162Z,-0.60
2023-02-02T11:11:55.882Z,-1.00
2023-02-02T11:14:44.513Z,-1.10
2023-02-02T11:17:21.912Z,-1.20
2023-02-02T11:19:52.775Z,-1.20
2023-02-02T11:22:30.113Z,-1.30
2023-02-02T11:25:01.448Z,-1.30
2023-02-02T11:27:32.650Z,-1.30
2023-02-02T11:30:03.446Z,-1.20
2023-02-02T11:32:33.713Z,-1.30
2023-02-02T11:35:23.689Z,-1.40
2023-02-02T11:38:02.217Z,-1.50
2023-02-02T11:40:33.977Z,-1.60
2023-02-02T11:43:05.754Z,-1.80
2023-02-02T11:45:37.003Z,-1.90
2023-02-02T11:48:20.031Z,-2.10
2023-02-02T11:50:52.224Z,-2.10
2023-02-02T11:53:26.403Z,-2.10
2023-02-02T11:55:56.185Z,-2.10
2023-02-02T11:58:27.794Z,-2.10
2023-02-02T12:00:59.592Z,-1.90
2023-02-02T12:03:33.673Z,-1.80
2023-02-02T12:06:20.503Z,-1.70
2023-02-02T12:08:49.237Z,-1.60
2023-02-02T12:11:36.838Z,-1.80
2023-02-02T12:14:17.943Z,-1.80
2023-02-02T12:16:54.820Z,-1.70
2023-02-02T12:19:42.795Z,-1.70
2023-02-02T12:22:26.891Z,-1.80
2023-02-02T12:25:02.144Z,-2.00
2023-02-02T12:27:41.123Z,-2.00
2023-02-02T12:30:24.497Z,-2.00
2023-02-02T12:33:24.386Z,-2.00
2023-02-02T12:36:11.358Z,-1.90
2023-02-02T12:39:01.741Z,-1.90
2023-02-02T12:41:42.465Z,-1.90
2023-02-02T12:44:19.349Z,-1.90
2023-02-02T12:47:02.987Z,-1.90
2023-02-02T12:49:50.243Z,-1.90
2023-02-02T12:52:29.096Z,-1.90
2023-02-02T12:55:11.386Z,-1.90
2023-02-02T12:57:54.571Z,-1.90
2023-02-02T13:00:46.476Z,-1.90
2023-02-02T13:03:31.663Z,-1.90
2023-02-02T13:06:25.176Z,-1.90
2023-02-02T13:09:00.157Z,-1.90
2023-02-02T13:11:40.622Z,-1.90
2023-02-02T13:14:12.494Z,-1.90
2023-02-02T13:16:44.628Z,-2.00
2023-02-02T13:19:17.007Z,-2.00
2023-02-02T13:21:46.360Z,-2.00
2023-02-02T13:24:21.329Z,-1.90
2023-02-02T13:26:51.714Z,-1.90
2023-02-02T13:29:28.600Z,-1.90
2023-02-02T13:32:02.897Z,-1.90
2023-02-02T13:34:41.149Z,-1.90
2023-02-02T13:37:19.222Z,-1.90
2023-02-02T13:39:54.433Z,-1.90
2023-02-02T13:42:38.002Z,-1.80
2023-02-02T13:45:20.735Z,-1.80
2023-02-02T13:47:57.094Z,-1.80
2023-02-02T13:50:30.184Z,-1.80
2023-02-02T13:53:16.732Z,-1.80
2023-02-02T13:56:10.657Z,-1.80
2023-02-02T13:59:07.391Z,-1.80
2023-02-02T14:01:36.378Z,-1.80
2023-02-02T14:04:06.846Z,-1.80
2023-02-02T14:06:59.381Z,-1.80
2023-02-02T14:09:31.247Z,-1.80
2023-02-02T14:12:03.636Z,-1.90
2023-02-02T14:14:35.285Z,-1.90
2023-02-02T14:17:06.155Z,-1.90
2023-02-02T14:19:54.677Z,-1.90
2023-02-02T14:22:44.918Z,-1.90
2023-02-02T14:25:53.479Z,-1.90
2023-02-02T14:28:48.730Z,-1.90
2023-02-02T14:31:41.600Z,-2.00
2023-02-02T14:34:31.455Z,-2.00
2023-02-02T14:37:29.166Z,-2.00
2023-02-02T14:40:05.545Z,-2.10
2023-02-02T14:43:18.883Z,-2.10
2023-02-02T14:45:49.203Z,-2.10
2023-02-02T14:48:20.767Z,-2.10
2023-02-02T14:50:52.090Z,-2.20
2023-02-02T14:53:26.928Z,-2.20
2023-02-02T14:56:00.727Z,-2.30
2023-02-02T14:58:34.117Z,-2.30
2023-02-02T15:01:23.721Z,-2.30
2023-02-02T15:03:56.459Z,-2.30
2023-02-02T15:06:35.586Z,-2.30
2023-02-02T15:09:36.745Z,-2.40
2023-02-02T15:12:29.349Z,-2.50
2023-02-02T15:15:08.118Z,-2.60
2023-02-02T15:17:48.585Z,-2.70
2023-02-02T15:20:29.725Z,-2.70
2023-02-02T15:23:01.970Z,-2.60
2023-02-02T15:25:34.861Z,-2.60
2023-02-02T15:28:11.800Z,-2.70
2023-02-02T15:30:44.637Z,-2.70
2023-02-02T15:33:28.846Z,-2.70
2023-02-02T15:36:01.176Z,-2.70
2023-02-02T15:38:35.449Z,-2.60
2023-02-02T15:41:08.869Z,-2.70
2023-02-02T15:43:37.715Z,-2.60
2023-02-02T15:46:10.733Z,-2.70
2023-02-02T15:48:39.251Z,-2.70
2023-02-02T15:51:17.470Z,-2.80
2023-02-02T15:53:51.726Z,-2.80
2023-02-02T15:56:22.764Z,-2.90
2023-02-02T15:58:52.275Z,-2.90
2023-02-02T16:01:22.780Z,-2.80
2023-02-02T16:03:57.472Z,-2.80
2023-02-02T16:06:27.181Z,-2.80
2023-02-02T16:08:55.434Z,-2.80
2023-02-02T16:11:25.004Z,-2.80
2023-02-02T16:14:01.563Z,-2.80
2023-02-02T16:16:31.849Z,-2.80
2023-02-02T16:19:05.902Z,-2.90
2023-02-02T16:21:38.990Z,-3.00
2023-02-02T16:24:15.206Z,-3.00
2023-02-02T16:26:43.864Z,-3.10
2023-02-02T16:29:17.111Z,-3.20
2023-02-02T16:31:46.892Z,-3.30
2023-02-02T16:34:19.707Z,-3.30
2023-02-02T16:37:07.576Z,-3.40
2023-02-02T16:39:35.731Z,-3.50
2023-02-02T16:42:11.531Z,-3.60
2023-02-02T16:44:43.050Z,-3.80
2023-02-02T16:47:35.290Z,-4.00
2023-02-02T16:50:23.495Z,-4.20
2023-02-02T16:52:57.063Z,-4.40
2023-02-02T16:55:36.423Z,-4.50
2023-02-02T16:58:19.737Z,-4.70
2023-02-02T17:01:12.281Z,-4.90
2023-02-02T17:03:50.942Z,-5.00
2023-02-02T17:06:26.528Z,-5.00
2023-02-02T17:08:56.792Z,-5.00
2023-02-02T17:11:27.119Z,-5.10
2023-02-02T17:13:55.763Z,-5.20
2023-02-02T17:16:26.007Z,-5.30
2023-02-02T17:18:54.531Z,-5.30
2023-02-02T17:21:25.544Z,-5.30
2023-02-02T17:23:56.400Z,-5.30
2023-02-02T17:26:24.626Z,-5.40
2023-02-02T17:28:57.795Z,-5.50
2023-02-02T17:31:26.083Z,-5.50
2023-02-02T17:33:54.390Z,-5.60
2023-02-02T17:36:22.886Z,-5.70
2023-02-02T17:38:51.047Z,-5.70
2023-02-02T17:41:20.586Z,-5.80
2023-02-02T17:43:49.025Z,-5.80
2023-02-02T17:46:19.048Z,-5.80
2023-02-02T17:48:47.200Z,-5.80
2023-02-02T17:51:16.905Z,-5.80
2023-02-02T17:53:46.012Z,-5.90
2023-02-02T17:56:14.219Z,-5.90
2023-02-02T17:58:43.932Z,-6.00
2023-02-02T18:01:13.334Z,-6.00
2023-02-02T18:03:45.078Z,-6.00
2023-02-02T18:06:13.852Z,-6.10
2023-02-02T18:08:42.049Z,-6.10
2023-02-02T18:11:16.501Z,-6.10
2023-02-02T18:13:46.262Z,-6.20
2023-02-02T18:16:14.934Z,-6.20
2023-02-02T18:18:43.581Z,-6.30
2023-02-02T18:21:14.095Z,-6.20
2023-02-02T18:23:42.535Z,-6.30
2023-02-02T18:26:13.301Z,-6.40
2023-02-02T18:28:41.578Z,-6.50
2023-02-02T18:31:14.093Z,-6.50
2023-02-02T18:33:43.144Z,-6.60
2023-02-02T18:36:13.470Z,-6.60
2023-02-02T18:38:45.332Z,-6.60
2023-02-02T18:41:13.990Z,-6.60
2023-02-02T18:43:42.234Z,-6.70
2023-02-02T18:46:13.889Z,-6.70
2023-02-02T18:48:43.014Z,-6.70
2023-02-02T18:51:16.292Z,-6.70
2023-02-02T18:53:45.097Z,-6.70
2023-02-02T18:56:13.927Z,-6.80
2023-02-02T18:58:42.878Z,-6.90
2023-02-02T19:01:15.297Z,-6.90
2023-02-02T19:03:44.431Z,-7.00
2023-02-02T19:06:29.963Z,-7.00
2023-02-02T19:08:58.471Z,-7.10
2023-02-02T19:11:33.039Z,-7.20
2023-02-02T19:14:01.451Z,-7.20
2023-02-02T19:16:34.102Z,-7.20
2023-02-02T19:19:08.974Z,-7.20
2023-02-02T19:21:37.101Z,-7.20
2023-02-02T19:24:11.618Z,-7.20
2023-02-02T19:26:42.316Z,-7.20
2023-02-02T19:29:18.270Z,-7.20
2023-02-02T19:31:52.044Z,-7.30
2023-02-02T19:34:23.601Z,-7.30
2023-02-02T19:36:52.364Z,-7.40
2023-02-02T19:39:27.145Z,-7.40
2023-02-02T19:41:59.883Z,-7.50
2023-02-02T19:44:31.963Z,-7.40
2023-02-02T19:47:02.812Z,-7.50
2023-02-02T19:49:34.186Z,-7.50
2023-02-02T19:52:03.892Z,-7.50
2023-02-02T19:54:35.858Z,-7.50
2023-02-02T19:57:16.027Z,-7.40
2023-02-02T19:59:48.648Z,-7.50
2023-02-02T20:02:34.978Z,-7.50
2023-02-02T20:05:08.005Z,-7.40
2023-02-02T20:07:36.148Z,-7.40
2023-02-02T20:10:20.654Z,-7.50
2023-02-02T20:12:49.139Z,-7.60
2023-02-02T20:15:32.304Z,-7.60
2023-02-02T20:18:03.540Z,-7.50
2023-02-02T20:20:39.309Z,-7.50
2023-02-02T20:23:36.688Z,-7.30
2023-02-02T20:26:12.333Z,-7.20
2023-02-02T20:28:44.833Z,-7.30
2023-02-02T20:31:16.156Z,-7.40
2023-02-02T20:33:49.214Z,-7.50
2023-02-02T20:36:38.105Z,-7.50
2023-02-02T20:39:23.818Z,-7.50
2023-02-02T20:41:52.478Z,-7.60
2023-02-02T20:44:20.565Z,-7.60
2023-02-02T20:46:48.905Z,-7.70
2023-02-02T20:49:21.004Z,-7.70
2023-02-02T20:51:49.379Z,-7.80
2023-02-02T20:54:17.531Z,-7.80
2023-02-02T20:56:46.123Z,-7.80
2023-02-02T20:59:14.643Z,-7.80
2023-02-02T21:01:43.197Z,-7.90
2023-02-02T21:04:12.188Z,-7.90
2023-02-02T21:06:42.330Z,-7.90
2023-02-02T21:09:11.695Z,-8.00
2023-02-02T21:11:40.725Z,-8.00
2023-02-02T21:14:09.107Z,-8.10
2023-02-02T21:16:37.625Z,-8.00
2023-02-02T21:19:06.194Z,-8.10
2023-02-02T21:21:34.367Z,-8.20
2023-02-02T21:24:04.399Z,-8.20
2023-02-02T21:26:32.602Z,-8.20
2023-02-02T21:29:00.746Z,-8.20
2023-02-02T21:31:29.147Z,-8.20
2023-02-02T21:33:57.414Z,-8.10
2023-02-02T21:36:34.109Z,-8.10
2023-02-02T21:39:16.511Z,-8.10
2023-02-02T21:41:45.110Z,-8.10
2023-02-02T21:44:18.237Z,-8.20
2023-02-02T21:46:48.316Z,-8.20
2023-02-02T21:49:23.879Z,-8.30
2023-02-02T21:51:53.255Z,-8.30
2023-02-02T21:54:25.178Z,-8.30
2023-02-02T21:56:54.875Z,-8.30
2023-02-02T21:59:24.740Z,-8.20
2023-02-02T22:01:54.482Z,-8.20
2023-02-02T22:04:25.167Z,-8.20
2023-02-02T22:06:55.233Z,-8.30
2023-02-02T22:09:27.021Z,-8.40
2023-02-02T22:11:59.635Z,-8.50
2023-02-02T22:14:37.454Z,-8.50
2023-02-02T22:17:21.996Z,-8.60
2023-02-02T22:19:51.265Z,-8.60
2023-02-02T22:22:22.799Z,-8.60
2023-02-02T22:25:00.613Z,-8.70
2023-02-02T22:27:41.673Z,-8.70
2023-02-02T22:30:19.850Z,-8.70
2023-02-02T22:32:48.300Z,-8.80
2023-02-02T22:35:16.560Z,-8.80
2023-02-02T22:37:45.104Z,-8.80
2023-02-02T22:40:16.768Z,-8.80
2023-02-02T22:42:45.079Z,-8.80
2023-02-02T22:45:13.690Z,-8.70
2023-02-02T22:47:42.244Z,-8.70
2023-02-02T22:50:10.967Z,-8.70
2023-02-02T22:52:39.237Z,-8.80
2023-02-02T22:55:08.367Z,-8.80
2023-02-02T22:57:38.395Z,-8.80
2023-02-02T23:00:12.188Z,-8.70
2023-02-02T23:02:41.591Z,-8.80
2023-02-02T23:05:11.902Z,-8.80
2023-02-02T23:07:44.076Z,-8.80
2023-02-02T23:10:13.499Z,-8.90
2023-02-02T23:12:44.166Z,-8.90
2023-02-02T23:15:13.812Z,-9.00
2023-02-02T23:17:42.692Z,-9.00
2023-02-02T23:20:15.081Z,-9.00
2023-02-02T23:22:43.982Z,-9.00
2023-02-02T23:25:13.003Z,-9.00
2023-02-02T23:27:43.529Z,-9.00
2023-02-02T23:30:14.080Z,-9.00
2023-02-02T23:32:42.839Z,-9.00
2023-02-02T23:35:11.740Z,-9.00
2023-02-02T23:37:40.048Z,-9.00
2023-02-02T23:40:09.483Z,-9.10
2023-02-02T23:42:37.857Z,-9.10
2023-02-02T23:45:08.578Z,-9.10
2023-02-02T23:47:36.948Z,-9.10
2023-02-02T23:50:06.977Z,-9.20
2023-02-02T23:52:36.461Z,-9.20
2023-02-02T23:55:05.581Z,-9.20
2023-02-02T23:57:36.589Z,-9.20
